Terminal Aerodrome Forecast
Issued by NWS Grand Forks, ND

Home | Current Version | Previous Version | Graphics & Text | Print | Product List | Glossary On
Versions: 1 2 3 4 5 6 7 8 9 10 11 12 13 14 15 16 17 18
825
FTUS43 KFGF 201419 AAB
TAFGFK
TAF AMD
KGFK 201419Z 2014/2112 16009KT P6SM OVC005
      TEMPO 2015/2016 SCT008 SCT250
     FM201600 16010KT P6SM SCT250
     FM210600 VRB04KT P6SM VCTS BKN090CB=

USA.gov is the U.S. government's official web portal to all federal, state and local government web resources and services.